Time;durP1;ratioP1;P1;durP2;ratioP2;P2;SDS_P1;SDS_P2;PMS_P1;PMS_P2;Temp;Humidity;BMP_temperature;BMP_pressure;BME280_temperature;BME280_humidity;BME280_pressure;Samples;Min_cycle;Max_cycle;Signal;HPM_P1;HPM_P2
2021/03/02 00:01:11;;;;;;;6.88;4.82;;;;;;;;;;5052163;28;20199;-76
2021/03/02 00:03:39;;;;;;;5.00;4.50;;;;;;;;;;5016837;28;20223;-77
2021/03/02 00:06:06;;;;;;;6.80;5.15;;;;;;;;;;5017987;28;20204;-75
2021/03/02 00:08:34;;;;;;;8.30;4.80;;;;;;;;;;5009632;28;20582;-76
2021/03/02 00:11:01;;;;;;;9.82;5.55;;;;;;;;;;5009941;28;20641;-74
2021/03/02 00:13:28;;;;;;;6.82;4.80;;;;;;;;;;5010483;28;20215;-75
2021/03/02 00:15:55;;;;;;;6.50;4.78;;;;;;;;;;5017604;28;20712;-75
2021/03/02 00:18:25;;;;;;;5.78;4.50;;;;;;;;;;5031944;28;20592;-76
2021/03/02 00:20:56;;;;;;;5.70;4.72;;;;;;;;;;5035494;28;20206;-74
2021/03/02 00:23:26;;;;;;;6.75;4.88;;;;;;;;;;5035598;28;20223;-74
2021/03/02 00:25:55;;;;;;;6.15;4.88;;;;;;;;;;5010922;28;20192;-76
2021/03/02 00:28:23;;;;;;;5.95;5.13;;;;;;;;;;5021469;28;20234;-75
2021/03/02 00:30:50;;;;;;;6.20;4.68;;;;;;;;;;5013336;28;20226;-76
2021/03/02 00:33:18;;;;;;;5.55;4.85;;;;;;;;;;5013416;28;20274;-75
2021/03/02 00:35:44;;;;;;;8.23;5.05;;;;;;;;;;5013849;28;20831;-75
2021/03/02 00:38:12;;;;;;;6.55;4.47;;;;;;;;;;5021639;28;20206;-74
2021/03/02 00:40:39;;;;;;;6.05;4.80;;;;;;;;;;5034309;28;20226;-75
2021/03/02 00:43:06;;;;;;;6.35;5.35;;;;;;;;;;5035298;28;20222;-75
2021/03/02 00:45:34;;;;;;;6.90;5.15;;;;;;;;;;5035108;28;20708;-76
2021/03/02 00:48:01;;;;;;;7.03;4.72;;;;;;;;;;5027571;28;20196;-77
2021/03/02 00:50:28;;;;;;;6.05;5.18;;;;;;;;;;5021121;28;20215;-76
2021/03/02 00:52:55;;;;;;;5.75;4.78;;;;;;;;;;5029436;28;20274;-77
2021/03/02 00:55:23;;;;;;;6.05;4.68;;;;;;;;;;5032464;28;20199;-76
2021/03/02 00:57:50;;;;;;;6.68;5.15;;;;;;;;;;5031141;28;20195;-75
2021/03/02 01:00:18;;;;;;;7.40;5.15;;;;;;;;;;5029044;28;20207;-76
2021/03/02 01:02:45;;;;;;;7.55;5.00;;;;;;;;;;5020635;28;20678;-75
2021/03/02 01:05:12;;;;;;;7.22;5.70;;;;;;;;;;5029116;28;20203;-76
2021/03/02 01:07:39;;;;;;;5.18;4.65;;;;;;;;;;5032069;28;20203;-75
2021/03/02 01:10:06;;;;;;;8.30;5.70;;;;;;;;;;5032031;28;20231;-76
2021/03/02 01:12:34;;;;;;;7.88;5.40;;;;;;;;;;5014989;28;20215;-75
2021/03/02 01:15:01;;;;;;;5.88;5.15;;;;;;;;;;5029368;28;20241;-75
2021/03/02 01:17:28;;;;;;;8.02;5.30;;;;;;;;;;5020309;28;20195;-73
2021/03/02 01:19:55;;;;;;;6.40;4.35;;;;;;;;;;5013827;28;20200;-75
2021/03/02 01:22:22;;;;;;;6.13;4.85;;;;;;;;;;5012389;28;20207;-76
2021/03/02 01:24:49;;;;;;;5.72;4.55;;;;;;;;;;5012863;28;20215;-74
2021/03/02 01:27:16;;;;;;;7.38;4.88;;;;;;;;;;5015846;28;20211;-73
2021/03/02 01:29:44;;;;;;;6.45;4.95;;;;;;;;;;5034114;28;20215;-74
2021/03/02 01:32:11;;;;;;;6.05;4.90;;;;;;;;;;5034437;28;20195;-75
2021/03/02 01:34:37;;;;;;;7.75;5.60;;;;;;;;;;5033713;28;20605;-74
2021/03/02 01:37:04;;;;;;;5.70;5.10;;;;;;;;;;5029755;28;21070;-76
2021/03/02 01:39:31;;;;;;;4.90;4.40;;;;;;;;;;5020199;28;20194;-75
2021/03/02 01:41:59;;;;;;;7.47;5.03;;;;;;;;;;5029282;28;20301;-75
2021/03/02 01:44:27;;;;;;;6.25;4.70;;;;;;;;;;5031888;28;20226;-73
2021/03/02 01:46:55;;;;;;;4.90;4.10;;;;;;;;;;5031959;28;20203;-76
2021/03/02 01:49:22;;;;;;;6.90;5.32;;;;;;;;;;5014459;28;20683;-73
2021/03/02 01:51:49;;;;;;;6.93;4.57;;;;;;;;;;5034360;28;20203;-74
2021/03/02 01:54:16;;;;;;;7.30;5.20;;;;;;;;;;5034089;28;20222;-74
2021/03/02 01:56:43;;;;;;;6.03;5.22;;;;;;;;;;5034102;28;20203;-75
2021/03/02 01:59:11;;;;;;;5.75;4.88;;;;;;;;;;5030058;28;20209;-76
2021/03/02 02:01:38;;;;;;;9.25;5.40;;;;;;;;;;5019753;28;20192;-75
2021/03/02 02:04:09;;;;;;;7.88;5.53;;;;;;;;;;5028791;28;20222;-75
2021/03/02 02:06:39;;;;;;;7.47;5.03;;;;;;;;;;5032031;28;20293;-77
2021/03/02 02:09:09;;;;;;;7.72;4.95;;;;;;;;;;5014057;28;20231;-76
2021/03/02 02:11:41;;;;;;;12.07;5.28;;;;;;;;;;5031934;28;20710;-76
2021/03/02 02:14:12;;;;;;;7.07;5.00;;;;;;;;;;5033478;28;20222;-75
2021/03/02 02:16:41;;;;;;;9.15;5.15;;;;;;;;;;5033640;28;20297;-74
2021/03/02 02:19:12;;;;;;;7.13;5.05;;;;;;;;;;5033602;28;20200;-75
2021/03/02 02:21:44;;;;;;;8.65;6.25;;;;;;;;;;5028054;28;20209;-76
2021/03/02 02:24:15;;;;;;;6.65;5.13;;;;;;;;;;5018972;28;20222;-75
2021/03/02 02:26:47;;;;;;;7.00;5.20;;;;;;;;;;5011600;28;20207;-75
2021/03/02 02:29:17;;;;;;;8.60;5.63;;;;;;;;;;5011256;28;20542;-75
2021/03/02 02:31:45;;;;;;;7.85;4.70;;;;;;;;;;5011633;28;20198;-76
2021/03/02 02:34:13;;;;;;;6.90;5.25;;;;;;;;;;5017548;28;20219;-76
2021/03/02 02:36:41;;;;;;;9.77;5.30;;;;;;;;;;5033022;28;20206;-75
2021/03/02 02:39:08;;;;;;;6.47;5.32;;;;;;;;;;5033108;28;20340;-75
2021/03/02 02:41:35;;;;;;;6.28;5.25;;;;;;;;;;5032822;28;20207;-76
2021/03/02 02:44:03;;;;;;;6.28;4.55;;;;;;;;;;5025828;28;20216;-75
2021/03/02 02:46:30;;;;;;;6.63;5.00;;;;;;;;;;5019063;28;20206;-76
2021/03/02 02:48:58;;;;;;;6.82;5.75;;;;;;;;;;5011214;28;20226;-76
2021/03/02 02:51:24;;;;;;;6.40;5.32;;;;;;;;;;5010837;28;20590;-76
2021/03/02 02:53:51;;;;;;;7.25;4.90;;;;;;;;;;5017418;28;20213;-76
2021/03/02 02:56:19;;;;;;;6.55;4.88;;;;;;;;;;5031110;28;20196;-75
2021/03/02 02:58:53;;;;;;;8.30;5.43;;;;;;;;;;5024260;28;20200;-73
2021/03/02 03:01:21;;;;;;;6.30;4.95;;;;;;;;;;5018007;28;20195;-74
2021/03/02 03:03:48;;;;;;;6.63;5.15;;;;;;;;;;5010412;28;20292;-75
2021/03/02 03:06:18;;;;;;;7.75;5.45;;;;;;;;;;5010711;28;20224;-75
2021/03/02 03:08:48;;;;;;;7.20;5.20;;;;;;;;;;5010934;28;20227;-75
2021/03/02 03:11:15;;;;;;;7.95;5.03;;;;;;;;;;5019693;28;20240;-76
2021/03/02 03:13:45;;;;;;;7.97;5.55;;;;;;;;;;5032650;28;20256;-76
2021/03/02 03:16:12;;;;;;;7.70;5.40;;;;;;;;;;5032584;28;20210;-76
2021/03/02 03:18:44;;;;;;;7.28;5.45;;;;;;;;;;5032341;28;20207;-74
2021/03/02 03:21:12;;;;;;;8.25;5.63;;;;;;;;;;5024041;28;20256;-75
2021/03/02 03:23:39;;;;;;;8.82;5.82;;;;;;;;;;5018799;28;20222;-74
2021/03/02 03:26:06;;;;;;;6.95;4.70;;;;;;;;;;5029961;28;20550;-75
2021/03/02 03:28:34;;;;;;;6.07;5.05;;;;;;;;;;5030256;28;20300;-75
2021/03/02 03:31:02;;;;;;;6.15;4.60;;;;;;;;;;5012971;28;20225;-75
2021/03/02 03:33:29;;;;;;;7.25;5.40;;;;;;;;;;5030400;28;20222;-75
2021/03/02 03:35:58;;;;;;;6.03;5.10;;;;;;;;;;5031705;28;20595;-75
2021/03/02 03:38:24;;;;;;;7.60;5.25;;;;;;;;;;5032328;28;20203;-74
2021/03/02 03:40:52;;;;;;;10.20;6.20;;;;;;;;;;5014755;28;20199;-74
2021/03/02 03:43:19;;;;;;;6.50;4.50;;;;;;;;;;5023910;28;20230;-75
2021/03/02 03:45:46;;;;;;;6.82;5.25;;;;;;;;;;5017662;28;20196;-75
2021/03/02 03:48:13;;;;;;;6.72;5.32;;;;;;;;;;5009937;28;20665;-75
2021/03/02 03:50:40;;;;;;;7.85;5.55;;;;;;;;;;5010173;28;20218;-74
2021/03/02 03:53:09;;;;;;;9.18;5.78;;;;;;;;;;5011332;28;20219;-75
2021/03/02 03:55:37;;;;;;;6.63;4.65;;;;;;;;;;5029827;28;20551;-75
2021/03/02 03:58:05;;;;;;;7.75;6.10;;;;;;;;;;5056170;28;20562;-76
2021/03/02 04:00:31;;;;;;;8.07;6.20;;;;;;;;;;5056006;28;20201;-75
2021/03/02 04:02:58;;;;;;;7.10;6.40;;;;;;;;;;5055995;28;20206;-75
2021/03/02 04:05:25;;;;;;;7.70;5.60;;;;;;;;;;5037585;28;20274;-74
2021/03/02 04:07:53;;;;;;;7.07;5.10;;;;;;;;;;5022157;28;20206;-76
2021/03/02 04:10:21;;;;;;;9.95;6.22;;;;;;;;;;5033205;28;20231;-74
2021/03/02 04:12:48;;;;;;;9.73;5.65;;;;;;;;;;5033551;28;20577;-77
2021/03/02 04:15:16;;;;;;;8.57;6.40;;;;;;;;;;5034045;28;20202;-75
2021/03/02 04:17:49;;;;;;;6.72;5.40;;;;;;;;;;5016952;28;20256;-74
2021/03/02 04:20:16;;;;;;;8.23;6.22;;;;;;;;;;5018330;28;20195;-75
2021/03/02 04:22:43;;;;;;;7.03;5.38;;;;;;;;;;5035714;28;20202;-76
2021/03/02 04:25:10;;;;;;;6.20;5.47;;;;;;;;;;5035717;28;20206;-76
2021/03/02 04:27:38;;;;;;;8.02;5.28;;;;;;;;;;5028249;28;20194;-74
2021/03/02 04:30:05;;;;;;;8.45;6.13;;;;;;;;;;5021790;28;20218;-76
2021/03/02 04:32:32;;;;;;;9.07;5.47;;;;;;;;;;5013523;28;20204;-75
2021/03/02 04:34:59;;;;;;;6.65;5.10;;;;;;;;;;5013377;28;20612;-75
2021/03/02 04:37:26;;;;;;;7.40;5.40;;;;;;;;;;5013584;28;20202;-76
2021/03/02 04:39:53;;;;;;;8.90;6.18;;;;;;;;;;5020403;28;20202;-76
2021/03/02 04:42:20;;;;;;;8.32;5.97;;;;;;;;;;5035564;28;20210;-75
2021/03/02 04:44:47;;;;;;;8.00;5.55;;;;;;;;;;5035458;28;20222;-76
2021/03/02 04:47:14;;;;;;;6.53;5.13;;;;;;;;;;5035331;28;20202;-76
2021/03/02 04:49:41;;;;;;;9.55;5.47;;;;;;;;;;5028347;28;20216;-76
2021/03/02 04:52:08;;;;;;;8.10;5.40;;;;;;;;;;5020963;28;20236;-76
2021/03/02 04:54:35;;;;;;;8.52;6.13;;;;;;;;;;5019038;28;20217;-76
2021/03/02 04:57:01;;;;;;;7.45;5.35;;;;;;;;;;5031667;28;20222;-74
2021/03/02 04:59:28;;;;;;;8.40;6.15;;;;;;;;;;5031276;28;20212;-74
2021/03/02 05:01:56;;;;;;;8.95;5.32;;;;;;;;;;5030313;28;20200;-74
2021/03/02 05:04:23;;;;;;;10.50;6.40;;;;;;;;;;5020467;28;20215;-74
2021/03/02 05:06:50;;;;;;;7.63;5.97;;;;;;;;;;5014909;28;20686;-74
2021/03/02 05:09:16;;;;;;;9.90;6.63;;;;;;;;;;5012626;28;20234;-75
2021/03/02 05:11:43;;;;;;;7.32;5.35;;;;;;;;;;5013203;28;20229;-74
2021/03/02 05:14:10;;;;;;;7.38;5.55;;;;;;;;;;5013051;28;20228;-74
2021/03/02 05:16:37;;;;;;;10.10;5.63;;;;;;;;;;5033817;28;20198;-76
2021/03/02 05:19:05;;;;;;;9.63;5.35;;;;;;;;;;5034592;28;20200;-76
2021/03/02 05:21:31;;;;;;;7.57;5.65;;;;;;;;;;5034482;28;20198;-75
2021/03/02 05:23:58;;;;;;;7.38;5.15;;;;;;;;;;5032048;28;20564;-74
2021/03/02 05:26:25;;;;;;;6.22;5.13;;;;;;;;;;5020171;28;20201;-75
2021/03/02 05:28:52;;;;;;;8.70;5.72;;;;;;;;;;5014958;28;20227;-75
2021/03/02 05:31:19;;;;;;;9.30;5.45;;;;;;;;;;5012365;28;20320;-76
2021/03/02 05:33:45;;;;;;;6.18;4.90;;;;;;;;;;5012441;28;20610;-76
2021/03/02 05:36:13;;;;;;;9.70;5.70;;;;;;;;;;5012203;28;20210;-74
2021/03/02 05:38:40;;;;;;;9.70;6.47;;;;;;;;;;5051029;28;20203;-76
2021/03/02 05:41:09;;;;;;;9.88;6.78;;;;;;;;;;5054317;28;20214;-75
2021/03/02 05:43:36;;;;;;;7.45;5.57;;;;;;;;;;5036662;28;20353;-76
2021/03/02 05:46:03;;;;;;;9.23;5.97;;;;;;;;;;5050848;28;20561;-74
2021/03/02 05:48:30;;;;;;;7.10;5.20;;;;;;;;;;5020307;28;20792;-75
2021/03/02 05:50:57;;;;;;;8.00;5.95;;;;;;;;;;5014876;28;20229;-75
2021/03/02 05:53:25;;;;;;;7.38;5.55;;;;;;;;;;5012371;28;20600;-76
2021/03/02 05:55:52;;;;;;;9.57;5.70;;;;;;;;;;5012217;28;20197;-76
2021/03/02 05:58:19;;;;;;;8.93;6.30;;;;;;;;;;5012238;28;20609;-74
2021/03/02 06:00:45;;;;;;;8.13;6.20;;;;;;;;;;5031659;28;20205;-74
2021/03/02 06:03:12;;;;;;;11.35;5.75;;;;;;;;;;5033793;28;20219;-75
2021/03/02 06:05:39;;;;;;;10.32;6.38;;;;;;;;;;5034167;28;20211;-74
2021/03/02 06:08:08;;;;;;;10.50;6.00;;;;;;;;;;5033235;28;20221;-74
2021/03/02 06:10:35;;;;;;;8.98;5.90;;;;;;;;;;5019555;28;20221;-75
2021/03/02 06:13:03;;;;;;;8.77;6.35;;;;;;;;;;5025798;28;20201;-76
2021/03/02 06:15:30;;;;;;;9.73;6.07;;;;;;;;;;5031443;28;20572;-75
2021/03/02 06:18:12;;;;;;;8.77;6.18;;;;;;;;;;5029622;28;20263;-76
2021/03/02 06:20:39;;;;;;;7.88;5.70;;;;;;;;;;5016474;28;20272;-76
2021/03/02 06:23:19;;;;;;;9.32;5.95;;;;;;;;;;5009816;28;20719;-76
2021/03/02 06:25:47;;;;;;;9.82;6.60;;;;;;;;;;5024094;28;20203;-74
2021/03/02 06:28:14;;;;;;;8.45;6.22;;;;;;;;;;5014548;28;20677;-79
2021/03/02 06:30:41;;;;;;;10.75;6.65;;;;;;;;;;5031867;28;20596;-85
2021/03/02 06:33:18;;;;;;;9.75;7.18;;;;;;;;;;5031845;28;20226;-74
2021/03/02 06:35:45;;;;;;;9.35;6.30;;;;;;;;;;5033045;28;20291;-76
2021/03/02 06:38:13;;;;;;;8.93;6.20;;;;;;;;;;5035554;28;20199;-75
2021/03/02 06:40:41;;;;;;;8.57;6.65;;;;;;;;;;5017369;28;20624;-75
2021/03/02 06:43:09;;;;;;;10.43;6.70;;;;;;;;;;5016550;28;20313;-75
2021/03/02 06:45:36;;;;;;;7.50;5.57;;;;;;;;;;5007427;28;20202;-75
2021/03/02 06:48:05;;;;;;;7.22;5.32;;;;;;;;;;5022412;28;20205;-75
2021/03/02 06:50:39;;;;;;;11.35;6.88;;;;;;;;;;5031319;28;20228;-76
2021/03/02 06:53:10;;;;;;;11.73;6.68;;;;;;;;;;5033372;28;20225;-76
2021/03/02 06:55:38;;;;;;;9.85;5.85;;;;;;;;;;5030938;28;20370;-75
2021/03/02 06:58:20;;;;;;;11.18;5.38;;;;;;;;;;5030082;28;20202;-74
2021/03/02 07:00:48;;;;;;;11.45;6.18;;;;;;;;;;5016769;28;20199;-76
2021/03/02 07:03:23;;;;;;;9.88;5.97;;;;;;;;;;5030879;28;20227;-74
2021/03/02 07:05:50;;;;;;;9.30;5.90;;;;;;;;;;5014270;28;20187;-75
2021/03/02 07:08:17;;;;;;;9.60;6.47;;;;;;;;;;5023338;28;20228;-76
2021/03/02 07:10:49;;;;;;;7.43;5.50;;;;;;;;;;5017076;28;20223;-75
2021/03/02 07:13:16;;;;;;;9.68;6.60;;;;;;;;;;5010813;28;20235;-74
2021/03/02 07:15:45;;;;;;;8.60;6.18;;;;;;;;;;5010962;28;20203;-76
2021/03/02 07:18:14;;;;;;;8.13;5.72;;;;;;;;;;5011136;28;20231;-73
2021/03/02 07:20:48;;;;;;;11.68;6.28;;;;;;;;;;5023376;28;20261;-78
2021/03/02 07:23:16;;;;;;;9.23;6.50;;;;;;;;;;5032477;28;20222;-75
2021/03/02 07:25:43;;;;;;;9.50;6.22;;;;;;;;;;5014726;28;20199;-75
2021/03/02 07:28:11;;;;;;;10.23;6.45;;;;;;;;;;5032323;28;20638;-76
2021/03/02 07:30:39;;;;;;;12.07;6.57;;;;;;;;;;5023858;28;20203;-75
2021/03/02 07:33:06;;;;;;;10.00;6.10;;;;;;;;;;5018886;28;20319;-75
2021/03/02 07:35:34;;;;;;;9.60;6.20;;;;;;;;;;5017036;28;20205;-76
2021/03/02 07:38:16;;;;;;;9.65;6.22;;;;;;;;;;5009911;28;20200;-75
2021/03/02 07:40:43;;;;;;;10.68;6.72;;;;;;;;;;5015297;28;20210;-74
2021/03/02 07:43:23;;;;;;;8.82;6.55;;;;;;;;;;5031027;28;20317;-74
2021/03/02 07:45:49;;;;;;;9.93;6.47;;;;;;;;;;5032447;28;20204;-74
2021/03/02 07:48:25;;;;;;;8.77;6.28;;;;;;;;;;5032483;28;20221;-75
2021/03/02 07:51:06;;;;;;;9.25;6.43;;;;;;;;;;5032138;28;20242;-76
2021/03/02 07:53:34;;;;;;;12.77;6.93;;;;;;;;;;5006916;28;20215;-75
2021/03/02 07:56:16;;;;;;;10.80;6.20;;;;;;;;;;5015968;28;20198;-75
2021/03/02 07:58:43;;;;;;;8.80;6.93;;;;;;;;;;5009742;28;20655;-77
2021/03/02 08:01:18;;;;;;;10.48;6.95;;;;;;;;;;5010657;28;20536;-76
2021/03/02 08:03:46;;;;;;;8.82;6.15;;;;;;;;;;5011112;28;20226;-75
2021/03/02 08:06:27;;;;;;;8.98;6.25;;;;;;;;;;5023459;28;20224;-76
2021/03/02 08:08:55;;;;;;;9.13;5.97;;;;;;;;;;5036921;28;20232;-75
2021/03/02 08:11:30;;;;;;;10.15;6.90;;;;;;;;;;5052345;28;20510;-76
2021/03/02 08:13:57;;;;;;;12.30;7.63;;;;;;;;;;5034499;28;20324;-76
2021/03/02 08:16:38;;;;;;;9.13;6.27;;;;;;;;;;5017730;28;20835;-78
2021/03/02 08:19:28;;;;;;;8.63;6.25;;;;;;;;;;5023968;28;20459;-76
2021/03/02 08:21:54;;;;;;;11.30;7.30;;;;;;;;;;5015565;28;20203;-74
2021/03/02 08:24:43;;;;;;;15.23;7.80;;;;;;;;;;5029755;28;20519;-75
2021/03/02 08:27:10;;;;;;;10.70;6.13;;;;;;;;;;5015679;28;20462;-76
2021/03/02 08:29:47;;;;;;;8.60;7.00;;;;;;;;;;5031902;28;20471;-76
2021/03/02 08:32:14;;;;;;;10.10;7.20;;;;;;;;;;5012773;28;20527;-75
2021/03/02 08:34:42;;;;;;;10.60;6.63;;;;;;;;;;5012052;28;20472;-75
2021/03/02 08:37:08;;;;;;;10.13;6.83;;;;;;;;;;5022786;28;20441;-76
2021/03/02 08:39:37;;;;;;;9.53;7.80;;;;;;;;;;5017743;28;20445;-75
2021/03/02 08:42:06;;;;;;;10.00;6.93;;;;;;;;;;5029620;28;20819;-76
2021/03/02 08:44:33;;;;;;;9.00;6.63;;;;;;;;;;5033284;28;20473;-76
2021/03/02 08:47:01;;;;;;;9.20;6.40;;;;;;;;;;5015927;28;20441;-75
2021/03/02 08:49:28;;;;;;;10.03;7.27;;;;;;;;;;5032849;28;20446;-75
2021/03/02 08:51:58;;;;;;;9.87;6.77;;;;;;;;;;5034759;28;20484;-74
2021/03/02 08:54:25;;;;;;;10.90;7.03;;;;;;;;;;5035026;28;20468;-75
2021/03/02 08:57:00;;;;;;;10.73;6.70;;;;;;;;;;5035207;28;20476;-75
2021/03/02 08:59:29;;;;;;;10.07;6.63;;;;;;;;;;5032651;28;20521;-75
2021/03/02 09:01:56;;;;;;;15.73;7.20;;;;;;;;;;5003597;28;20497;-75
2021/03/02 09:04:25;;;;;;;11.03;7.43;;;;;;;;;;5028384;28;21010;-74
2021/03/02 09:06:52;;;;;;;11.57;7.33;;;;;;;;;;5015556;28;20450;-77
2021/03/02 09:09:19;;;;;;;10.93;7.17;;;;;;;;;;5033002;28;20480;-77
2021/03/02 09:11:47;;;;;;;13.13;7.20;;;;;;;;;;5033351;28;20568;-75
2021/03/02 09:14:15;;;;;;;11.33;7.60;;;;;;;;;;4998089;28;20473;-76
2021/03/02 09:16:43;;;;;;;13.10;7.87;;;;;;;;;;5031006;28;20453;-75
2021/03/02 09:19:12;;;;;;;10.60;8.03;;;;;;;;;;5035619;28;20525;-77
2021/03/02 09:21:40;;;;;;;13.80;7.83;;;;;;;;;;5035373;28;20954;-75
2021/03/02 09:24:07;;;;;;;11.10;7.73;;;;;;;;;;5021190;28;20546;-75
2021/03/02 09:26:34;;;;;;;12.07;7.40;;;;;;;;;;5025973;28;20977;-77
2021/03/02 09:29:02;;;;;;;10.73;7.10;;;;;;;;;;5032860;28;20453;-75
2021/03/02 09:31:30;;;;;;;12.50;7.50;;;;;;;;;;5014611;28;20478;-75
2021/03/02 09:33:57;;;;;;;12.83;8.10;;;;;;;;;;5033138;28;20869;-76
2021/03/02 09:36:25;;;;;;;10.83;7.77;;;;;;;;;;5029278;28;20442;-73
2021/03/02 09:38:52;;;;;;;10.80;8.17;;;;;;;;;;5034520;28;20474;-74
2021/03/02 09:41:34;;;;;;;11.53;7.00;;;;;;;;;;5034585;28;20503;-77
2021/03/02 09:44:16;;;;;;;13.70;7.83;;;;;;;;;;5018196;28;20545;-74
2021/03/02 09:46:44;;;;;;;11.20;7.10;;;;;;;;;;5006368;28;20581;-75
2021/03/02 09:49:11;;;;;;;10.67;7.50;;;;;;;;;;5022825;28;20974;-75
2021/03/02 09:51:38;;;;;;;10.70;7.37;;;;;;;;;;5031700;28;20484;-75
2021/03/02 09:54:13;;;;;;;11.37;7.00;;;;;;;;;;5032058;28;20458;-75
2021/03/02 09:56:40;;;;;;;12.40;8.03;;;;;;;;;;5014409;28;20446;-76
2021/03/02 09:59:07;;;;;;;12.73;8.10;;;;;;;;;;5033439;28;20476;-75
2021/03/02 10:01:35;;;;;;;10.90;7.73;;;;;;;;;;5034158;28;20438;-75
2021/03/02 10:04:10;;;;;;;11.50;8.17;;;;;;;;;;5033460;28;20520;-76
2021/03/02 10:06:37;;;;;;;13.77;8.73;;;;;;;;;;5033963;28;20873;-77
2021/03/02 10:09:04;;;;;;;16.00;8.37;;;;;;;;;;5021922;28;20866;-73
2021/03/02 10:11:31;;;;;;;11.30;7.40;;;;;;;;;;5022937;28;20474;-75
2021/03/02 10:13:59;;;;;;;12.17;8.97;;;;;;;;;;5031112;28;20501;-74
2021/03/02 10:16:28;;;;;;;15.57;8.50;;;;;;;;;;5031684;28;20857;-74
2021/03/02 10:18:56;;;;;;;12.33;8.00;;;;;;;;;;5031599;28;20438;-75
2021/03/02 10:21:25;;;;;;;11.53;8.20;;;;;;;;;;5024383;28;20444;-76
2021/03/02 10:23:52;;;;;;;12.90;8.53;;;;;;;;;;5026575;28;20468;-76
2021/03/02 10:26:20;;;;;;;12.30;8.40;;;;;;;;;;5033731;28;20536;-75
2021/03/02 10:28:47;;;;;;;10.17;8.63;;;;;;;;;;5033257;28;20453;-76
2021/03/02 10:31:14;;;;;;;17.77;9.00;;;;;;;;;;5024682;28;20565;-75
2021/03/02 10:33:41;;;;;;;13.50;8.83;;;;;;;;;;5018750;28;20471;-75
2021/03/02 10:36:17;;;;;;;11.57;8.63;;;;;;;;;;5026304;28;20450;-76
2021/03/02 10:38:44;;;;;;;11.13;8.13;;;;;;;;;;5034428;28;20958;-74
2021/03/02 10:41:11;;;;;;;13.33;7.80;;;;;;;;;;5033049;28;20540;-76
2021/03/02 10:43:38;;;;;;;14.07;8.73;;;;;;;;;;5032323;28;21006;-74
2021/03/02 10:46:05;;;;;;;12.93;8.37;;;;;;;;;;5033215;28;20452;-76
2021/03/02 10:48:32;;;;;;;13.00;8.70;;;;;;;;;;5032932;28;20446;-77
2021/03/02 10:50:59;;;;;;;15.13;8.77;;;;;;;;;;5032592;28;20542;-77
2021/03/02 10:53:26;;;;;;;13.63;8.77;;;;;;;;;;5027306;28;20551;-75
2021/03/02 10:55:53;;;;;;;11.73;8.10;;;;;;;;;;5018554;28;20459;-74
2021/03/02 10:58:20;;;;;;;13.63;8.47;;;;;;;;;;5018790;28;20957;-76
2021/03/02 11:00:47;;;;;;;12.87;8.60;;;;;;;;;;5030897;28;20438;-74
2021/03/02 11:03:16;;;;;;;11.00;7.20;;;;;;;;;;5030199;28;20472;-77
2021/03/02 11:05:43;;;;;;;11.60;7.93;;;;;;;;;;5031444;28;20450;-76
2021/03/02 11:08:09;;;;;;;12.90;8.10;;;;;;;;;;5032694;28;20786;-75
2021/03/02 11:10:36;;;;;;;19.40;10.77;;;;;;;;;;5025729;28;20835;-75
2021/03/02 11:13:04;;;;;;;11.80;8.77;;;;;;;;;;5012952;28;20467;-73
2021/03/02 11:15:31;;;;;;;10.83;7.50;;;;;;;;;;5023501;28;21433;-74
2021/03/02 11:17:57;;;;;;;12.60;8.17;;;;;;;;;;5018357;28;20541;-75
2021/03/02 11:20:24;;;;;;;12.87;9.40;;;;;;;;;;5021108;28;20541;-78
2021/03/02 11:22:51;;;;;;;19.97;8.57;;;;;;;;;;5031220;28;20914;-76
2021/03/02 11:25:18;;;;;;;13.40;8.87;;;;;;;;;;5031072;28;20483;-75
2021/03/02 11:27:46;;;;;;;16.67;9.37;;;;;;;;;;5026847;28;20478;-77
2021/03/02 11:30:15;;;;;;;11.00;8.07;;;;;;;;;;4991570;28;20830;-77
2021/03/02 11:32:41;;;;;;;15.50;8.90;;;;;;;;;;5012871;28;20869;-75
2021/03/02 11:35:09;;;;;;;16.90;8.70;;;;;;;;;;5012868;28;20451;-76
2021/03/02 11:37:36;;;;;;;13.57;8.67;;;;;;;;;;5004167;28;20945;-75
2021/03/02 11:40:04;;;;;;;14.43;9.63;;;;;;;;;;5000748;28;20446;-75
2021/03/02 11:42:31;;;;;;;12.80;8.13;;;;;;;;;;5014213;28;20863;-76
2021/03/02 11:44:58;;;;;;;12.57;8.47;;;;;;;;;;5010543;28;20506;-77
2021/03/02 11:47:26;;;;;;;12.37;8.53;;;;;;;;;;5010967;28;20468;-77
2021/03/02 11:49:53;;;;;;;14.20;9.40;;;;;;;;;;5011093;28;20447;-74
2021/03/02 11:52:20;;;;;;;12.27;9.23;;;;;;;;;;5027704;28;20492;-75
2021/03/02 11:54:47;;;;;;;11.47;8.73;;;;;;;;;;5018448;28;20458;-78
2021/03/02 11:57:14;;;;;;;16.03;8.43;;;;;;;;;;5022290;28;20899;-75
2021/03/02 11:59:41;;;;;;;14.93;8.30;;;;;;;;;;5030323;28;20452;-74
2021/03/02 12:02:08;;;;;;;13.07;8.30;;;;;;;;;;5030025;28;20444;-74
2021/03/02 12:04:36;;;;;;;13.70;9.17;;;;;;;;;;5030070;28;20455;-75
2021/03/02 12:07:03;;;;;;;12.10;8.40;;;;;;;;;;5031608;28;20843;-75
2021/03/02 12:09:30;;;;;;;14.40;9.63;;;;;;;;;;5031885;28;20482;-74
2021/03/02 12:11:57;;;;;;;12.47;8.33;;;;;;;;;;5031646;28;20527;-74
2021/03/02 12:14:24;;;;;;;12.70;8.70;;;;;;;;;;5013395;28;20462;-74
2021/03/02 12:16:50;;;;;;;12.30;8.33;;;;;;;;;;5020293;28;20793;-76
2021/03/02 12:19:17;;;;;;;13.47;8.80;;;;;;;;;;5024296;28;20472;-75
2021/03/02 12:21:45;;;;;;;14.57;8.77;;;;;;;;;;5033484;28;20448;-73
2021/03/02 12:24:12;;;;;;;16.17;8.60;;;;;;;;;;5016058;28;20984;-73
2021/03/02 12:26:38;;;;;;;16.20;8.90;;;;;;;;;;5033837;28;20441;-75
2021/03/02 12:29:07;;;;;;;15.13;8.93;;;;;;;;;;5034775;28;20556;-75
2021/03/02 12:31:33;;;;;;;12.43;8.40;;;;;;;;;;5035768;28;20808;-75
2021/03/02 12:34:00;;;;;;;11.60;8.47;;;;;;;;;;5035796;28;20825;-76
2021/03/02 12:36:27;;;;;;;17.80;8.67;;;;;;;;;;5035704;28;20448;-76
2021/03/02 12:38:55;;;;;;;13.97;8.97;;;;;;;;;;5027706;28;20936;-74
2021/03/02 12:41:22;;;;;;;11.90;8.57;;;;;;;;;;5021739;28;20866;-75
2021/03/02 12:43:49;;;;;;;15.70;9.30;;;;;;;;;;5033037;28;20573;-76
2021/03/02 12:46:15;;;;;;;14.57;8.60;;;;;;;;;;5033617;28;20552;-74
2021/03/02 12:48:42;;;;;;;15.20;9.50;;;;;;;;;;5033432;28;20449;-76
2021/03/02 12:51:09;;;;;;;20.37;9.43;;;;;;;;;;5033810;28;20490;-76
2021/03/02 12:53:36;;;;;;;15.60;9.40;;;;;;;;;;5035167;28;20523;-76
2021/03/02 12:56:04;;;;;;;13.53;8.73;;;;;;;;;;5035471;28;20798;-75
2021/03/02 12:58:31;;;;;;;12.37;8.90;;;;;;;;;;5017948;28;20847;-77
2021/03/02 13:00:58;;;;;;;11.20;8.50;;;;;;;;;;5027476;28;20469;-74
2021/03/02 13:03:24;;;;;;;11.70;8.23;;;;;;;;;;5021036;28;20461;-74
2021/03/02 13:05:52;;;;;;;14.23;9.40;;;;;;;;;;5012997;28;20466;-74
2021/03/02 13:08:18;;;;;;;13.10;9.33;;;;;;;;;;5012839;28;20465;-76
2021/03/02 13:10:45;;;;;;;14.30;9.50;;;;;;;;;;5012719;28;20497;-74
2021/03/02 13:13:14;;;;;;;13.10;9.63;;;;;;;;;;5019932;28;20477;-75
2021/03/02 13:15:42;;;;;;;14.27;9.50;;;;;;;;;;5025944;28;20438;-75
2021/03/02 13:18:09;;;;;;;15.87;10.20;;;;;;;;;;5020239;28;20436;-75
2021/03/02 13:20:36;;;;;;;14.33;9.40;;;;;;;;;;5012742;28;20525;-74
2021/03/02 13:23:03;;;;;;;16.80;9.27;;;;;;;;;;4995421;28;20549;-75
2021/03/02 13:25:30;;;;;;;13.00;7.93;;;;;;;;;;5012854;28;20444;-75
2021/03/02 13:27:58;;;;;;;12.40;8.93;;;;;;;;;;5021956;28;20466;-75
2021/03/02 13:30:27;;;;;;;15.93;9.33;;;;;;;;;;5034545;28;20952;-74
2021/03/02 13:32:56;;;;;;;15.40;9.80;;;;;;;;;;5034457;28;20507;-72
2021/03/02 13:35:23;;;;;;;14.30;8.97;;;;;;;;;;5034350;28;20427;-74
2021/03/02 13:37:50;;;;;;;13.80;9.20;;;;;;;;;;5025219;28;20439;-75
2021/03/02 13:40:18;;;;;;;14.93;9.97;;;;;;;;;;5019674;28;20447;-74
2021/03/02 13:42:48;;;;;;;15.77;9.23;;;;;;;;;;5011875;28;20541;-74
2021/03/02 13:45:16;;;;;;;15.07;9.87;;;;;;;;;;5012304;28;20443;-75
2021/03/02 13:47:45;;;;;;;13.27;9.10;;;;;;;;;;4995555;28;20525;-75
2021/03/02 13:50:13;;;;;;;14.37;8.97;;;;;;;;;;5022591;28;20929;-75
2021/03/02 13:52:40;;;;;;;17.63;10.30;;;;;;;;;;5034341;28;20449;-75
2021/03/02 13:55:07;;;;;;;16.63;9.70;;;;;;;;;;5034108;28;20527;-75
2021/03/02 13:57:35;;;;;;;14.80;9.60;;;;;;;;;;5034053;28;20445;-75
2021/03/02 14:00:02;;;;;;;15.53;9.53;;;;;;;;;;5024406;28;20446;-75
2021/03/02 14:02:29;;;;;;;13.40;8.73;;;;;;;;;;5018958;28;20500;-75
2021/03/02 14:04:57;;;;;;;14.30;8.47;;;;;;;;;;5011698;28;21026;-76
2021/03/02 14:07:25;;;;;;;14.40;9.07;;;;;;;;;;5012030;28;20451;-74
2021/03/02 14:09:52;;;;;;;13.13;8.43;;;;;;;;;;5012430;28;20537;-76
2021/03/02 14:12:19;;;;;;;14.70;9.33;;;;;;;;;;5021957;28;20494;-74
2021/03/02 14:14:46;;;;;;;15.60;8.90;;;;;;;;;;5033663;28;20515;-75
2021/03/02 14:17:14;;;;;;;16.90;9.53;;;;;;;;;;5033738;28;20453;-75
2021/03/02 14:19:41;;;;;;;14.73;9.43;;;;;;;;;;5033991;28;20452;-76
2021/03/02 14:22:09;;;;;;;16.80;9.67;;;;;;;;;;5014887;28;20532;-75
2021/03/02 14:24:36;;;;;;;21.73;11.00;;;;;;;;;;5021072;28;20541;-74
2021/03/02 14:27:03;;;;;;;16.57;9.63;;;;;;;;;;5031043;28;20761;-75
2021/03/02 14:29:30;;;;;;;18.57;9.10;;;;;;;;;;5031307;28;20456;-74
2021/03/02 14:31:57;;;;;;;15.37;8.63;;;;;;;;;;5031700;28;20538;-75
2021/03/02 14:34:24;;;;;;;15.77;9.77;;;;;;;;;;5032076;28;20485;-74
2021/03/02 14:36:52;;;;;;;14.97;9.00;;;;;;;;;;5033460;28;20442;-73
2021/03/02 14:39:19;;;;;;;14.87;9.87;;;;;;;;;;5033125;28;20444;-72
2021/03/02 14:41:49;;;;;;;14.93;9.23;;;;;;;;;;5033912;28;21077;-74